sensor_id;sensor_type;location;lat;lon;timestamp;P1;durP1;ratioP1;P2;durP2;ratioP2
54328;SDS011;40710;51.120;13.136;2023-02-28T00:00:44;8.02;;;7.98;;
54328;SDS011;40710;51.120;13.136;2023-02-28T00:03:08;8.20;;;8.14;;
54328;SDS011;40710;51.120;13.136;2023-02-28T00:05:33;8.24;;;8.13;;
54328;SDS011;40710;51.120;13.136;2023-02-28T00:07:58;8.39;;;8.28;;
54328;SDS011;40710;51.120;13.136;2023-02-28T00:10:26;8.15;;;8.02;;
54328;SDS011;40710;51.120;13.136;2023-02-28T00:12:53;8.43;;;8.31;;
54328;SDS011;40710;51.120;13.136;2023-02-28T00:15:20;8.72;;;8.62;;
54328;SDS011;40710;51.120;13.136;2023-02-28T00:17:46;8.65;;;8.59;;
54328;SDS011;40710;51.120;13.136;2023-02-28T00:20:11;8.37;;;8.25;;
54328;SDS011;40710;51.120;13.136;2023-02-28T00:22:37;8.53;;;8.40;;
54328;SDS011;40710;51.120;13.136;2023-02-28T00:25:04;8.20;;;8.15;;
54328;SDS011;40710;51.120;13.136;2023-02-28T00:27:31;8.44;;;8.35;;
54328;SDS011;40710;51.120;13.136;2023-02-28T00:29:55;8.28;;;8.16;;
54328;SDS011;40710;51.120;13.136;2023-02-28T00:32:20;8.14;;;8.09;;
54328;SDS011;40710;51.120;13.136;2023-02-28T00:34:44;8.32;;;8.22;;
54328;SDS011;40710;51.120;13.136;2023-02-28T00:37:09;8.10;;;8.01;;
54328;SDS011;40710;51.120;13.136;2023-02-28T00:39:36;8.09;;;7.96;;
54328;SDS011;40710;51.120;13.136;2023-02-28T00:42:01;8.35;;;8.25;;
54328;SDS011;40710;51.120;13.136;2023-02-28T00:44:27;8.20;;;8.11;;
54328;SDS011;40710;51.120;13.136;2023-02-28T00:46:52;8.23;;;8.15;;
54328;SDS011;40710;51.120;13.136;2023-02-28T00:49:18;8.23;;;8.16;;
54328;SDS011;40710;51.120;13.136;2023-02-28T00:51:42;8.14;;;7.96;;
54328;SDS011;40710;51.120;13.136;2023-02-28T00:54:07;8.16;;;8.06;;
54328;SDS011;40710;51.120;13.136;2023-02-28T00:56:31;8.00;;;7.92;;
54328;SDS011;40710;51.120;13.136;2023-02-28T00:58:56;8.72;;;8.64;;
54328;SDS011;40710;51.120;13.136;2023-02-28T01:01:20;8.32;;;8.18;;
54328;SDS011;40710;51.120;13.136;2023-02-28T01:03:45;7.92;;;7.84;;
54328;SDS011;40710;51.120;13.136;2023-02-28T01:06:09;8.04;;;8.01;;
54328;SDS011;40710;51.120;13.136;2023-02-28T01:08:34;8.22;;;8.10;;
54328;SDS011;40710;51.120;13.136;2023-02-28T01:11:06;8.26;;;8.19;;
54328;SDS011;40710;51.120;13.136;2023-02-28T01:13:31;8.15;;;8.05;;
54328;SDS011;40710;51.120;13.136;2023-02-28T01:15:56;8.08;;;7.98;;
54328;SDS011;40710;51.120;13.136;2023-02-28T01:18:21;8.40;;;8.30;;
54328;SDS011;40710;51.120;13.136;2023-02-28T01:20:46;8.30;;;8.18;;
54328;SDS011;40710;51.120;13.136;2023-02-28T01:23:10;8.23;;;8.13;;
54328;SDS011;40710;51.120;13.136;2023-02-28T01:25:35;8.57;;;8.52;;
54328;SDS011;40710;51.120;13.136;2023-02-28T01:28:01;8.19;;;8.19;;
54328;SDS011;40710;51.120;13.136;2023-02-28T01:30:25;8.54;;;8.50;;
54328;SDS011;40710;51.120;13.136;2023-02-28T01:32:50;8.02;;;7.93;;
54328;SDS011;40710;51.120;13.136;2023-02-28T01:35:17;8.14;;;8.01;;
54328;SDS011;40710;51.120;13.136;2023-02-28T01:37:42;9.05;;;8.93;;
54328;SDS011;40710;51.120;13.136;2023-02-28T01:40:06;8.56;;;8.48;;
54328;SDS011;40710;51.120;13.136;2023-02-28T01:42:31;8.30;;;8.27;;
54328;SDS011;40710;51.120;13.136;2023-02-28T01:45:01;7.95;;;7.89;;
54328;SDS011;40710;51.120;13.136;2023-02-28T01:48:03;8.37;;;8.23;;
54328;SDS011;40710;51.120;13.136;2023-02-28T01:50:34;8.47;;;8.34;;
54328;SDS011;40710;51.120;13.136;2023-02-28T01:53:04;8.66;;;8.52;;
54328;SDS011;40710;51.120;13.136;2023-02-28T01:55:32;8.31;;;8.26;;
54328;SDS011;40710;51.120;13.136;2023-02-28T01:58:00;8.62;;;8.57;;
54328;SDS011;40710;51.120;13.136;2023-02-28T02:00:29;8.62;;;8.62;;
54328;SDS011;40710;51.120;13.136;2023-02-28T02:02:55;8.78;;;8.77;;
54328;SDS011;40710;51.120;13.136;2023-02-28T02:05:27;8.27;;;8.26;;
54328;SDS011;40710;51.120;13.136;2023-02-28T02:07:55;8.44;;;8.39;;
54328;SDS011;40710;51.120;13.136;2023-02-28T02:10:31;8.88;;;8.80;;
54328;SDS011;40710;51.120;13.136;2023-02-28T02:16:18;9.03;;;8.92;;
54328;SDS011;40710;51.120;13.136;2023-02-28T02:18:49;8.79;;;8.66;;
54328;SDS011;40710;51.120;13.136;2023-02-28T02:35:00;9.47;;;9.44;;
54328;SDS011;40710;51.120;13.136;2023-02-28T02:37:39;9.68;;;9.57;;
54328;SDS011;40710;51.120;13.136;2023-02-28T02:40:37;9.22;;;9.15;;
54328;SDS011;40710;51.120;13.136;2023-02-28T02:43:32;9.95;;;9.80;;
54328;SDS011;40710;51.120;13.136;2023-02-28T02:46:06;9.94;;;9.85;;
54328;SDS011;40710;51.120;13.136;2023-02-28T02:48:43;10.07;;;9.91;;
54328;SDS011;40710;51.120;13.136;2023-02-28T02:51:12;9.58;;;9.52;;
54328;SDS011;40710;51.120;13.136;2023-02-28T02:53:42;10.31;;;10.20;;
54328;SDS011;40710;51.120;13.136;2023-02-28T02:56:23;9.99;;;9.90;;
54328;SDS011;40710;51.120;13.136;2023-02-28T02:58:53;10.14;;;9.97;;
54328;SDS011;40710;51.120;13.136;2023-02-28T03:01:23;10.22;;;10.09;;
54328;SDS011;40710;51.120;13.136;2023-02-28T03:04:00;10.58;;;10.45;;
54328;SDS011;40710;51.120;13.136;2023-02-28T03:06:30;10.02;;;9.97;;
54328;SDS011;40710;51.120;13.136;2023-02-28T03:08:55;10.10;;;9.92;;
54328;SDS011;40710;51.120;13.136;2023-02-28T03:11:19;9.69;;;9.53;;
54328;SDS011;40710;51.120;13.136;2023-02-28T03:16:35;10.30;;;10.14;;
54328;SDS011;40710;51.120;13.136;2023-02-28T03:19:30;9.89;;;9.79;;
54328;SDS011;40710;51.120;13.136;2023-02-28T03:22:29;9.78;;;9.63;;
54328;SDS011;40710;51.120;13.136;2023-02-28T03:28:05;9.73;;;9.53;;
54328;SDS011;40710;51.120;13.136;2023-02-28T03:33:36;9.24;;;9.15;;
54328;SDS011;40710;51.120;13.136;2023-02-28T03:36:13;9.81;;;9.55;;
54328;SDS011;40710;51.120;13.136;2023-02-28T03:38:45;9.78;;;9.55;;
54328;SDS011;40710;51.120;13.136;2023-02-28T03:41:23;9.73;;;9.55;;
54328;SDS011;40710;51.120;13.136;2023-02-28T03:43:56;9.59;;;9.41;;
54328;SDS011;40710;51.120;13.136;2023-02-28T03:46:28;9.40;;;9.23;;
54328;SDS011;40710;51.120;13.136;2023-02-28T03:49:09;9.11;;;9.03;;
54328;SDS011;40710;51.120;13.136;2023-02-28T03:51:42;9.10;;;8.97;;
54328;SDS011;40710;51.120;13.136;2023-02-28T03:54:15;9.35;;;9.18;;
54328;SDS011;40710;51.120;13.136;2023-02-28T03:56:54;9.05;;;8.93;;
54328;SDS011;40710;51.120;13.136;2023-02-28T03:59:34;9.31;;;9.17;;
54328;SDS011;40710;51.120;13.136;2023-02-28T04:02:05;9.21;;;9.08;;
54328;SDS011;40710;51.120;13.136;2023-02-28T04:04:30;9.38;;;9.28;;
54328;SDS011;40710;51.120;13.136;2023-02-28T04:07:05;9.27;;;9.18;;
54328;SDS011;40710;51.120;13.136;2023-02-28T04:09:32;9.10;;;8.99;;
54328;SDS011;40710;51.120;13.136;2023-02-28T04:11:57;9.32;;;9.21;;
54328;SDS011;40710;51.120;13.136;2023-02-28T04:14:22;9.16;;;9.01;;
54328;SDS011;40710;51.120;13.136;2023-02-28T04:16:47;36.49;;;34.87;;
54328;SDS011;40710;51.120;13.136;2023-02-28T04:19:12;58.59;;;54.37;;
54328;SDS011;40710;51.120;13.136;2023-02-28T04:21:39;21.40;;;20.51;;
54328;SDS011;40710;51.120;13.136;2023-02-28T04:24:08;12.04;;;11.78;;
54328;SDS011;40710;51.120;13.136;2023-02-28T04:26:38;10.11;;;9.98;;
54328;SDS011;40710;51.120;13.136;2023-02-28T04:29:03;9.73;;;9.61;;
54328;SDS011;40710;51.120;13.136;2023-02-28T04:31:29;9.11;;;9.02;;
54328;SDS011;40710;51.120;13.136;2023-02-28T04:33:53;9.14;;;9.03;;
54328;SDS011;40710;51.120;13.136;2023-02-28T04:36:18;9.13;;;8.98;;
54328;SDS011;40710;51.120;13.136;2023-02-28T04:38:43;9.62;;;9.53;;
54328;SDS011;40710;51.120;13.136;2023-02-28T04:41:08;10.21;;;10.02;;
54328;SDS011;40710;51.120;13.136;2023-02-28T04:43:32;9.59;;;9.47;;
54328;SDS011;40710;51.120;13.136;2023-02-28T04:45:58;9.41;;;9.30;;
54328;SDS011;40710;51.120;13.136;2023-02-28T04:48:29;9.54;;;9.36;;
54328;SDS011;40710;51.120;13.136;2023-02-28T04:50:59;9.62;;;9.41;;
54328;SDS011;40710;51.120;13.136;2023-02-28T04:53:25;9.62;;;9.47;;
54328;SDS011;40710;51.120;13.136;2023-02-28T04:55:52;9.15;;;9.06;;
54328;SDS011;40710;51.120;13.136;2023-02-28T04:58:17;9.72;;;9.61;;
54328;SDS011;40710;51.120;13.136;2023-02-28T05:00:41;9.68;;;9.57;;
54328;SDS011;40710;51.120;13.136;2023-02-28T05:03:06;10.04;;;9.92;;
54328;SDS011;40710;51.120;13.136;2023-02-28T05:05:30;9.93;;;9.80;;
54328;SDS011;40710;51.120;13.136;2023-02-28T05:07:55;10.35;;;10.17;;
54328;SDS011;40710;51.120;13.136;2023-02-28T05:10:20;9.66;;;9.57;;
54328;SDS011;40710;51.120;13.136;2023-02-28T05:12:44;10.16;;;10.05;;
54328;SDS011;40710;51.120;13.136;2023-02-28T05:15:12;11.61;;;11.44;;
54328;SDS011;40710;51.120;13.136;2023-02-28T05:17:38;13.00;;;12.78;;
54328;SDS011;40710;51.120;13.136;2023-02-28T05:20:02;11.57;;;11.47;;
54328;SDS011;40710;51.120;13.136;2023-02-28T05:22:29;10.70;;;10.58;;
54328;SDS011;40710;51.120;13.136;2023-02-28T05:24:53;11.17;;;10.98;;
54328;SDS011;40710;51.120;13.136;2023-02-28T05:27:18;11.44;;;11.24;;
54328;SDS011;40710;51.120;13.136;2023-02-28T05:29:42;11.08;;;10.93;;
54328;SDS011;40710;51.120;13.136;2023-02-28T05:32:08;11.61;;;11.43;;
54328;SDS011;40710;51.120;13.136;2023-02-28T05:34:34;11.63;;;11.41;;
54328;SDS011;40710;51.120;13.136;2023-02-28T05:37:00;11.57;;;11.43;;
54328;SDS011;40710;51.120;13.136;2023-02-28T05:39:25;12.51;;;12.32;;
54328;SDS011;40710;51.120;13.136;2023-02-28T05:41:49;12.51;;;12.30;;
54328;SDS011;40710;51.120;13.136;2023-02-28T05:44:14;13.02;;;12.85;;
54328;SDS011;40710;51.120;13.136;2023-02-28T05:46:39;12.93;;;12.73;;
54328;SDS011;40710;51.120;13.136;2023-02-28T05:49:04;13.50;;;13.34;;
54328;SDS011;40710;51.120;13.136;2023-02-28T05:51:28;12.97;;;12.76;;
54328;SDS011;40710;51.120;13.136;2023-02-28T05:53:53;12.39;;;12.23;;
54328;SDS011;40710;51.120;13.136;2023-02-28T05:56:17;12.77;;;12.61;;
54328;SDS011;40710;51.120;13.136;2023-02-28T05:58:42;13.65;;;13.47;;
54328;SDS011;40710;51.120;13.136;2023-02-28T06:01:20;14.48;;;14.20;;
54328;SDS011;40710;51.120;13.136;2023-02-28T06:03:46;13.63;;;13.41;;
54328;SDS011;40710;51.120;13.136;2023-02-28T06:06:11;15.65;;;15.34;;
54328;SDS011;40710;51.120;13.136;2023-02-28T06:08:35;15.56;;;15.29;;
54328;SDS011;40710;51.120;13.136;2023-02-28T06:11:02;16.37;;;15.97;;
54328;SDS011;40710;51.120;13.136;2023-02-28T06:13:28;16.46;;;16.06;;
54328;SDS011;40710;51.120;13.136;2023-02-28T06:15:53;16.15;;;15.81;;
54328;SDS011;40710;51.120;13.136;2023-02-28T06:18:17;16.00;;;15.72;;
54328;SDS011;40710;51.120;13.136;2023-02-28T06:20:42;16.06;;;15.91;;
54328;SDS011;40710;51.120;13.136;2023-02-28T06:23:06;16.05;;;15.74;;
54328;SDS011;40710;51.120;13.136;2023-02-28T06:25:31;16.54;;;16.11;;
54328;SDS011;40710;51.120;13.136;2023-02-28T06:27:55;16.49;;;16.21;;
54328;SDS011;40710;51.120;13.136;2023-02-28T06:30:20;16.66;;;16.47;;
54328;SDS011;40710;51.120;13.136;2023-02-28T06:32:49;16.52;;;16.30;;
54328;SDS011;40710;51.120;13.136;2023-02-28T06:35:13;16.42;;;16.21;;
54328;SDS011;40710;51.120;13.136;2023-02-28T06:37:38;16.08;;;15.77;;
54328;SDS011;40710;51.120;13.136;2023-02-28T06:40:03;16.11;;;15.89;;
54328;SDS011;40710;51.120;13.136;2023-02-28T06:42:30;16.96;;;16.78;;
54328;SDS011;40710;51.120;13.136;2023-02-28T06:44:55;16.89;;;16.60;;
54328;SDS011;40710;51.120;13.136;2023-02-28T06:47:20;16.82;;;16.54;;
54328;SDS011;40710;51.120;13.136;2023-02-28T06:49:45;15.75;;;15.51;;
54328;SDS011;40710;51.120;13.136;2023-02-28T06:52:10;15.90;;;15.66;;
54328;SDS011;40710;51.120;13.136;2023-02-28T06:54:35;15.71;;;15.51;;
54328;SDS011;40710;51.120;13.136;2023-02-28T06:57:00;15.20;;;14.99;;
54328;SDS011;40710;51.120;13.136;2023-02-28T06:59:25;15.36;;;15.02;;
54328;SDS011;40710;51.120;13.136;2023-02-28T07:01:49;15.27;;;15.08;;
54328;SDS011;40710;51.120;13.136;2023-02-28T07:04:14;14.70;;;14.48;;
54328;SDS011;40710;51.120;13.136;2023-02-28T07:06:39;14.85;;;14.70;;
54328;SDS011;40710;51.120;13.136;2023-02-28T07:09:03;13.60;;;13.49;;
54328;SDS011;40710;51.120;13.136;2023-02-28T07:11:28;13.65;;;13.56;;
54328;SDS011;40710;51.120;13.136;2023-02-28T07:13:53;13.73;;;13.66;;
54328;SDS011;40710;51.120;13.136;2023-02-28T07:16:18;14.49;;;14.35;;
54328;SDS011;40710;51.120;13.136;2023-02-28T07:18:43;13.83;;;13.64;;
54328;SDS011;40710;51.120;13.136;2023-02-28T07:21:09;14.13;;;13.88;;
54328;SDS011;40710;51.120;13.136;2023-02-28T07:23:34;14.91;;;14.68;;
54328;SDS011;40710;51.120;13.136;2023-02-28T07:25:59;14.41;;;14.30;;
54328;SDS011;40710;51.120;13.136;2023-02-28T07:28:24;15.27;;;15.09;;
54328;SDS011;40710;51.120;13.136;2023-02-28T07:30:49;15.48;;;15.26;;
54328;SDS011;40710;51.120;13.136;2023-02-28T07:33:14;16.33;;;16.06;;
54328;SDS011;40710;51.120;13.136;2023-02-28T07:35:38;16.32;;;16.15;;
54328;SDS011;40710;51.120;13.136;2023-02-28T07:38:03;16.39;;;16.16;;
54328;SDS011;40710;51.120;13.136;2023-02-28T07:40:28;16.70;;;16.32;;
54328;SDS011;40710;51.120;13.136;2023-02-28T07:42:52;16.19;;;15.91;;
54328;SDS011;40710;51.120;13.136;2023-02-28T07:45:17;16.32;;;16.09;;
54328;SDS011;40710;51.120;13.136;2023-02-28T07:47:42;15.94;;;15.72;;
54328;SDS011;40710;51.120;13.136;2023-02-28T07:50:07;15.18;;;14.94;;
54328;SDS011;40710;51.120;13.136;2023-02-28T07:52:35;14.69;;;14.55;;
54328;SDS011;40710;51.120;13.136;2023-02-28T07:55:00;15.41;;;15.22;;
54328;SDS011;40710;51.120;13.136;2023-02-28T07:57:25;15.05;;;14.98;;
54328;SDS011;40710;51.120;13.136;2023-02-28T07:59:49;14.86;;;14.62;;
54328;SDS011;40710;51.120;13.136;2023-02-28T08:02:14;15.20;;;15.13;;
54328;SDS011;40710;51.120;13.136;2023-02-28T08:04:41;14.75;;;14.66;;
54328;SDS011;40710;51.120;13.136;2023-02-28T08:07:05;14.36;;;14.25;;
54328;SDS011;40710;51.120;13.136;2023-02-28T08:09:30;14.50;;;14.35;;
54328;SDS011;40710;51.120;13.136;2023-02-28T08:11:54;14.79;;;14.56;;
54328;SDS011;40710;51.120;13.136;2023-02-28T08:14:19;14.38;;;14.38;;
54328;SDS011;40710;51.120;13.136;2023-02-28T08:16:43;14.95;;;14.68;;
54328;SDS011;40710;51.120;13.136;2023-02-28T08:19:08;15.22;;;15.03;;
54328;SDS011;40710;51.120;13.136;2023-02-28T08:21:33;15.88;;;15.66;;
54328;SDS011;40710;51.120;13.136;2023-02-28T08:23:57;15.87;;;15.64;;
54328;SDS011;40710;51.120;13.136;2023-02-28T08:26:22;15.35;;;15.28;;
54328;SDS011;40710;51.120;13.136;2023-02-28T08:28:47;15.33;;;15.09;;
54328;SDS011;40710;51.120;13.136;2023-02-28T08:31:12;14.87;;;14.75;;
54328;SDS011;40710;51.120;13.136;2023-02-28T08:33:38;14.61;;;14.39;;
54328;SDS011;40710;51.120;13.136;2023-02-28T08:36:04;14.78;;;14.61;;
54328;SDS011;40710;51.120;13.136;2023-02-28T08:38:29;14.82;;;14.63;;
54328;SDS011;40710;51.120;13.136;2023-02-28T08:40:58;15.20;;;15.11;;
54328;SDS011;40710;51.120;13.136;2023-02-28T08:43:24;15.54;;;15.40;;
54328;SDS011;40710;51.120;13.136;2023-02-28T08:45:50;15.22;;;15.00;;
54328;SDS011;40710;51.120;13.136;2023-02-28T08:48:16;14.37;;;14.28;;
54328;SDS011;40710;51.120;13.136;2023-02-28T08:50:40;14.08;;;14.03;;
54328;SDS011;40710;51.120;13.136;2023-02-28T08:53:05;14.48;;;14.34;;
54328;SDS011;40710;51.120;13.136;2023-02-28T08:55:30;13.89;;;13.84;;
54328;SDS011;40710;51.120;13.136;2023-02-28T08:57:54;14.14;;;14.03;;
54328;SDS011;40710;51.120;13.136;2023-02-28T09:00:19;14.13;;;13.99;;
54328;SDS011;40710;51.120;13.136;2023-02-28T09:02:44;15.46;;;15.37;;
54328;SDS011;40710;51.120;13.136;2023-02-28T09:05:09;14.52;;;14.47;;
54328;SDS011;40710;51.120;13.136;2023-02-28T09:07:33;14.32;;;14.24;;
54328;SDS011;40710;51.120;13.136;2023-02-28T09:09:58;14.64;;;14.53;;
54328;SDS011;40710;51.120;13.136;2023-02-28T09:12:23;14.11;;;13.99;;
54328;SDS011;40710;51.120;13.136;2023-02-28T09:14:49;14.29;;;14.25;;
54328;SDS011;40710;51.120;13.136;2023-02-28T09:17:14;13.71;;;13.70;;
54328;SDS011;40710;51.120;13.136;2023-02-28T09:19:39;14.28;;;14.19;;
54328;SDS011;40710;51.120;13.136;2023-02-28T09:22:04;14.48;;;14.42;;
54328;SDS011;40710;51.120;13.136;2023-02-28T09:24:28;14.44;;;14.32;;
54328;SDS011;40710;51.120;13.136;2023-02-28T09:26:55;13.86;;;13.82;;
54328;SDS011;40710;51.120;13.136;2023-02-28T09:29:20;13.84;;;13.83;;
54328;SDS011;40710;51.120;13.136;2023-02-28T09:31:44;14.47;;;14.44;;
54328;SDS011;40710;51.120;13.136;2023-02-28T09:34:09;13.98;;;13.94;;
54328;SDS011;40710;51.120;13.136;2023-02-28T09:36:33;13.35;;;13.24;;
54328;SDS011;40710;51.120;13.136;2023-02-28T09:38:59;13.96;;;13.80;;
54328;SDS011;40710;51.120;13.136;2023-02-28T09:41:24;13.81;;;13.81;;
54328;SDS011;40710;51.120;13.136;2023-02-28T09:43:56;13.16;;;13.16;;
54328;SDS011;40710;51.120;13.136;2023-02-28T09:46:34;13.10;;;13.10;;
54328;SDS011;40710;51.120;13.136;2023-02-28T09:49:05;11.83;;;11.78;;
54328;SDS011;40710;51.120;13.136;2023-02-28T09:54:13;11.68;;;11.68;;
54328;SDS011;40710;51.120;13.136;2023-02-28T09:56:43;11.97;;;11.97;;
54328;SDS011;40710;51.120;13.136;2023-02-28T09:59:17;11.92;;;11.92;;
54328;SDS011;40710;51.120;13.136;2023-02-28T10:02:00;12.39;;;12.34;;
54328;SDS011;40710;51.120;13.136;2023-02-28T10:04:40;11.94;;;11.93;;
54328;SDS011;40710;51.120;13.136;2023-02-28T10:12:48;12.69;;;12.69;;
54328;SDS011;40710;51.120;13.136;2023-02-28T10:15:19;12.45;;;12.45;;
54328;SDS011;40710;51.120;13.136;2023-02-28T10:17:51;12.69;;;12.68;;
54328;SDS011;40710;51.120;13.136;2023-02-28T10:20:23;12.99;;;12.98;;
54328;SDS011;40710;51.120;13.136;2023-02-28T10:23:00;13.33;;;13.32;;
54328;SDS011;40710;51.120;13.136;2023-02-28T10:25:35;13.58;;;13.54;;
54328;SDS011;40710;51.120;13.136;2023-02-28T10:28:09;13.97;;;13.72;;
54328;SDS011;40710;51.120;13.136;2023-02-28T10:30:40;13.69;;;13.67;;
54328;SDS011;40710;51.120;13.136;2023-02-28T10:33:15;14.86;;;14.70;;
54328;SDS011;40710;51.120;13.136;2023-02-28T10:35:43;14.47;;;14.46;;
54328;SDS011;40710;51.120;13.136;2023-02-28T10:38:11;14.54;;;14.52;;
54328;SDS011;40710;51.120;13.136;2023-02-28T10:40:42;14.82;;;14.80;;
54328;SDS011;40710;51.120;13.136;2023-02-28T10:45:37;14.97;;;14.89;;
54328;SDS011;40710;51.120;13.136;2023-02-28T10:48:06;14.80;;;14.62;;
54328;SDS011;40710;51.120;13.136;2023-02-28T10:51:01;14.28;;;14.16;;
54328;SDS011;40710;51.120;13.136;2023-02-28T10:53:30;13.90;;;13.85;;
54328;SDS011;40710;51.120;13.136;2023-02-28T10:58:30;14.66;;;14.66;;
54328;SDS011;40710;51.120;13.136;2023-02-28T11:01:10;15.07;;;15.07;;
54328;SDS011;40710;51.120;13.136;2023-02-28T11:03:39;16.43;;;16.33;;
54328;SDS011;40710;51.120;13.136;2023-02-28T11:06:05;15.52;;;15.44;;
54328;SDS011;40710;51.120;13.136;2023-02-28T11:08:43;15.86;;;15.86;;
54328;SDS011;40710;51.120;13.136;2023-02-28T11:11:40;16.29;;;16.29;;
54328;SDS011;40710;51.120;13.136;2023-02-28T11:14:17;16.30;;;16.09;;
54328;SDS011;40710;51.120;13.136;2023-02-28T11:16:52;15.67;;;15.67;;
54328;SDS011;40710;51.120;13.136;2023-02-28T11:19:20;15.35;;;15.35;;
54328;SDS011;40710;51.120;13.136;2023-02-28T11:22:03;16.00;;;15.74;;
54328;SDS011;40710;51.120;13.136;2023-02-28T11:24:37;15.28;;;15.19;;
54328;SDS011;40710;51.120;13.136;2023-02-28T11:27:40;16.35;;;16.35;;
54328;SDS011;40710;51.120;13.136;2023-02-28T11:32:53;15.91;;;15.85;;
54328;SDS011;40710;51.120;13.136;2023-02-28T11:35:23;16.37;;;16.36;;
54328;SDS011;40710;51.120;13.136;2023-02-28T11:37:52;16.40;;;16.39;;
54328;SDS011;40710;51.120;13.136;2023-02-28T11:40:27;16.57;;;16.49;;
54328;SDS011;40710;51.120;13.136;2023-02-28T11:43:04;17.04;;;16.79;;
54328;SDS011;40710;51.120;13.136;2023-02-28T11:45:56;15.95;;;15.91;;
54328;SDS011;40710;51.120;13.136;2023-02-28T11:48:29;15.66;;;15.66;;
54328;SDS011;40710;51.120;13.136;2023-02-28T11:54:04;14.71;;;14.60;;
54328;SDS011;40710;51.120;13.136;2023-02-28T11:57:03;15.01;;;15.01;;
54328;SDS011;40710;51.120;13.136;2023-02-28T11:59:55;14.89;;;14.87;;
54328;SDS011;40710;51.120;13.136;2023-02-28T12:02:34;15.11;;;15.06;;
54328;SDS011;40710;51.120;13.136;2023-02-28T12:08:05;14.53;;;14.53;;
54328;SDS011;40710;51.120;13.136;2023-02-28T12:10:52;14.47;;;14.47;;
54328;SDS011;40710;51.120;13.136;2023-02-28T12:13:29;14.74;;;14.71;;
54328;SDS011;40710;51.120;13.136;2023-02-28T12:16:12;14.12;;;14.11;;
54328;SDS011;40710;51.120;13.136;2023-02-28T12:19:01;14.83;;;14.83;;
54328;SDS011;40710;51.120;13.136;2023-02-28T12:21:55;14.27;;;14.27;;
54328;SDS011;40710;51.120;13.136;2023-02-28T12:24:39;13.99;;;13.99;;
54328;SDS011;40710;51.120;13.136;2023-02-28T12:27:18;14.44;;;14.44;;
54328;SDS011;40710;51.120;13.136;2023-02-28T12:29:53;14.51;;;14.51;;
54328;SDS011;40710;51.120;13.136;2023-02-28T12:32:35;16.42;;;16.42;;
54328;SDS011;40710;51.120;13.136;2023-02-28T12:37:40;14.96;;;14.93;;
54328;SDS011;40710;51.120;13.136;2023-02-28T12:40:20;14.45;;;14.45;;
54328;SDS011;40710;51.120;13.136;2023-02-28T12:42:51;15.40;;;15.40;;
54328;SDS011;40710;51.120;13.136;2023-02-28T12:45:22;15.56;;;15.56;;
54328;SDS011;40710;51.120;13.136;2023-02-28T12:47:55;15.85;;;15.84;;
54328;SDS011;40710;51.120;13.136;2023-02-28T12:50:25;15.52;;;15.51;;
54328;SDS011;40710;51.120;13.136;2023-02-28T12:55:50;15.52;;;15.52;;
54328;SDS011;40710;51.120;13.136;2023-02-28T12:58:45;15.88;;;15.80;;
54328;SDS011;40710;51.120;13.136;2023-02-28T13:01:32;16.38;;;16.33;;
54328;SDS011;40710;51.120;13.136;2023-02-28T13:10:46;18.42;;;18.37;;
54328;SDS011;40710;51.120;13.136;2023-02-28T13:13:19;18.69;;;18.62;;
54328;SDS011;40710;51.120;13.136;2023-02-28T13:15:56;18.68;;;18.55;;
54328;SDS011;40710;51.120;13.136;2023-02-28T13:18:35;19.14;;;19.02;;
54328;SDS011;40710;51.120;13.136;2023-02-28T13:21:01;19.46;;;19.16;;
54328;SDS011;40710;51.120;13.136;2023-02-28T13:26:16;19.78;;;19.57;;
54328;SDS011;40710;51.120;13.136;2023-02-28T13:34:26;20.74;;;20.34;;
54328;SDS011;40710;51.120;13.136;2023-02-28T13:36:51;19.96;;;19.93;;
54328;SDS011;40710;51.120;13.136;2023-02-28T13:39:52;20.29;;;20.00;;
54328;SDS011;40710;51.120;13.136;2023-02-28T13:42:23;20.38;;;20.13;;
54328;SDS011;40710;51.120;13.136;2023-02-28T13:45:19;20.61;;;20.37;;
54328;SDS011;40710;51.120;13.136;2023-02-28T13:47:54;24.80;;;24.51;;
54328;SDS011;40710;51.120;13.136;2023-02-28T13:50:23;34.11;;;33.52;;
54328;SDS011;40710;51.120;13.136;2023-02-28T13:55:51;20.41;;;20.11;;
54328;SDS011;40710;51.120;13.136;2023-02-28T13:58:35;19.34;;;19.28;;
54328;SDS011;40710;51.120;13.136;2023-02-28T14:01:22;20.20;;;19.94;;
54328;SDS011;40710;51.120;13.136;2023-02-28T14:03:58;21.05;;;20.89;;
54328;SDS011;40710;51.120;13.136;2023-02-28T14:06:39;19.95;;;19.75;;
54328;SDS011;40710;51.120;13.136;2023-02-28T14:09:19;19.45;;;19.31;;
54328;SDS011;40710;51.120;13.136;2023-02-28T14:11:47;20.73;;;20.55;;
54328;SDS011;40710;51.120;13.136;2023-02-28T14:16:58;20.78;;;20.70;;
54328;SDS011;40710;51.120;13.136;2023-02-28T14:19:24;20.69;;;20.33;;
54328;SDS011;40710;51.120;13.136;2023-02-28T14:27:57;19.90;;;19.88;;
54328;SDS011;40710;51.120;13.136;2023-02-28T14:33:42;20.06;;;19.88;;
54328;SDS011;40710;51.120;13.136;2023-02-28T14:36:35;19.47;;;19.47;;
54328;SDS011;40710;51.120;13.136;2023-02-28T14:39:06;24.51;;;24.36;;
54328;SDS011;40710;51.120;13.136;2023-02-28T14:41:39;30.02;;;29.20;;
54328;SDS011;40710;51.120;13.136;2023-02-28T14:44:16;24.17;;;23.86;;
54328;SDS011;40710;51.120;13.136;2023-02-28T14:46:50;21.28;;;20.94;;
54328;SDS011;40710;51.120;13.136;2023-02-28T14:49:23;22.24;;;21.67;;
54328;SDS011;40710;51.120;13.136;2023-02-28T14:52:06;20.60;;;20.41;;
54328;SDS011;40710;51.120;13.136;2023-02-28T14:54:40;21.96;;;21.60;;
54328;SDS011;40710;51.120;13.136;2023-02-28T14:57:05;21.51;;;21.51;;
54328;SDS011;40710;51.120;13.136;2023-02-28T14:59:32;22.78;;;22.56;;
54328;SDS011;40710;51.120;13.136;2023-02-28T15:04:42;21.81;;;21.66;;
54328;SDS011;40710;51.120;13.136;2023-02-28T15:07:08;21.70;;;21.44;;
54328;SDS011;40710;51.120;13.136;2023-02-28T15:09:38;21.89;;;21.82;;
54328;SDS011;40710;51.120;13.136;2023-02-28T15:12:03;22.34;;;22.15;;
54328;SDS011;40710;51.120;13.136;2023-02-28T15:14:28;22.50;;;21.97;;
54328;SDS011;40710;51.120;13.136;2023-02-28T15:16:57;21.45;;;21.32;;
54328;SDS011;40710;51.120;13.136;2023-02-28T15:19:33;21.71;;;21.59;;
54328;SDS011;40710;51.120;13.136;2023-02-28T15:22:04;22.81;;;22.26;;
54328;SDS011;40710;51.120;13.136;2023-02-28T15:24:37;22.56;;;22.01;;
54328;SDS011;40710;51.120;13.136;2023-02-28T15:27:12;20.68;;;20.61;;
54328;SDS011;40710;51.120;13.136;2023-02-28T15:29:46;20.89;;;20.71;;
54328;SDS011;40710;51.120;13.136;2023-02-28T15:34:46;19.80;;;19.78;;
54328;SDS011;40710;51.120;13.136;2023-02-28T15:39:50;19.19;;;19.08;;
54328;SDS011;40710;51.120;13.136;2023-02-28T15:42:18;19.87;;;19.57;;
54328;SDS011;40710;51.120;13.136;2023-02-28T15:44:44;19.54;;;19.49;;
54328;SDS011;40710;51.120;13.136;2023-02-28T15:47:16;21.00;;;20.79;;
54328;SDS011;40710;51.120;13.136;2023-02-28T15:52:39;32.53;;;31.62;;
54328;SDS011;40710;51.120;13.136;2023-02-28T15:55:08;29.65;;;28.96;;
54328;SDS011;40710;51.120;13.136;2023-02-28T15:57:38;23.17;;;22.84;;
54328;SDS011;40710;51.120;13.136;2023-02-28T16:00:05;23.88;;;23.41;;
54328;SDS011;40710;51.120;13.136;2023-02-28T16:02:37;23.25;;;22.73;;
54328;SDS011;40710;51.120;13.136;2023-02-28T16:07:34;24.47;;;23.92;;